Time;durP1;ratioP1;P1;durP2;ratioP2;P2;SDS_P1;SDS_P2;PMS_P1;PMS_P2;Temp;Humidity;BMP_temperature;BMP_pressure;BME280_temperature;BME280_humidity;BME280_pressure;Samples;Min_cycle;Max_cycle;Signal;HPM_P1;HPM_P2
2021/11/22 00:02:24;;;;;;;3.25;1.85;;;;;;;2.80;100.00;101880.09;10592554;27;20051;-82
2021/11/22 00:07:26;;;;;;;4.32;1.75;;;;;;;2.78;100.00;101887.66;10594068;27;20100;-83
2021/11/22 00:12:29;;;;;;;3.53;1.55;;;;;;;2.65;100.00;101890.22;10576596;28;20509;-83
2021/11/22 00:17:34;;;;;;;3.30;2.00;;;;;;;2.66;100.00;101890.31;10588792;28;20047;-83
2021/11/22 00:22:36;;;;;;;5.63;2.05;;;;;;;2.64;100.00;101897.00;10586464;28;20047;-82
2021/11/22 00:27:37;;;;;;;7.43;1.85;;;;;;;2.63;100.00;101889.25;10578565;28;20051;-83
2021/11/22 00:32:43;;;;;;;5.55;1.55;;;;;;;2.45;100.00;101900.84;10585599;28;20051;-83
2021/11/22 00:37:50;;;;;;;8.70;2.35;;;;;;;2.46;100.00;101910.28;10597760;28;20051;-83
2021/11/22 00:42:51;;;;;;;10.63;1.80;;;;;;;2.45;100.00;101927.25;10577865;28;20044;-83
2021/11/22 00:47:54;;;;;;;5.40;2.20;;;;;;;2.42;100.00;101928.72;10599317;28;20474;-77
2021/11/22 00:52:56;;;;;;;5.32;1.92;;;;;;;2.39;100.00;101934.53;10579059;28;20063;-77
2021/11/22 00:57:58;;;;;;;4.25;2.03;;;;;;;2.28;100.00;101951.69;10587338;28;20054;-77
2021/11/22 01:03:00;;;;;;;7.65;2.35;;;;;;;2.16;100.00;101948.31;10608852;28;20047;-77
2021/11/22 01:08:03;;;;;;;3.92;1.65;;;;;;;2.24;100.00;101965.03;10593488;28;20044;-77
2021/11/22 01:13:05;;;;;;;5.50;2.13;;;;;;;2.22;100.00;101970.81;10587258;28;20043;-77
2021/11/22 01:18:07;;;;;;;6.28;1.95;;;;;;;2.21;100.00;101969.03;10578795;28;20051;-77
2021/11/22 01:23:12;;;;;;;4.93;2.08;;;;;;;2.19;100.00;101986.81;10621332;27;20498;-77
2021/11/22 01:28:14;;;;;;;5.07;1.60;;;;;;;2.19;100.00;101993.56;10627955;27;20047;-77
2021/11/22 01:33:16;;;;;;;3.38;1.63;;;;;;;2.33;100.00;101987.75;10587904;27;20051;-82
2021/11/22 01:38:18;;;;;;;3.55;1.60;;;;;;;2.20;100.00;101992.78;10607843;27;20450;-83
2021/11/22 01:43:20;;;;;;;9.13;2.03;;;;;;;2.21;100.00;102015.84;10597874;27;20056;-82
2021/11/22 01:48:22;;;;;;;4.75;1.90;;;;;;;2.18;100.00;102014.78;10584087;28;20130;-84
2021/11/22 01:53:24;;;;;;;4.80;2.15;;;;;;;2.05;100.00;102018.19;10582739;28;20059;-83
2021/11/22 01:58:47;;;;;;;9.20;1.83;;;;;;;2.17;100.00;102026.66;10599610;27;20051;-83
2021/11/22 02:03:48;;;;;;;6.93;2.05;;;;;;;2.02;100.00;102029.03;10601430;27;20133;-83
2021/11/22 02:08:50;;;;;;;3.83;1.83;;;;;;;1.91;100.00;102039.31;10626707;27;20055;-83
2021/11/22 02:13:52;;;;;;;14.30;1.95;;;;;;;1.87;100.00;102040.75;10581458;28;20491;-83
2021/11/22 02:18:55;;;;;;;5.20;1.70;;;;;;;1.75;100.00;102050.97;10595587;27;20051;-83
2021/11/22 02:23:57;;;;;;;3.95;2.17;;;;;;;1.95;100.00;102048.94;10604892;27;20043;-83
2021/11/22 02:28:58;;;;;;;4.43;1.88;;;;;;;1.82;100.00;102058.31;10580849;28;20134;-84
2021/11/22 02:34:00;;;;;;;4.65;2.05;;;;;;;1.79;100.00;102064.84;10595107;27;20407;-81
2021/11/22 02:39:03;;;;;;;3.05;1.73;;;;;;;1.76;100.00;102078.28;10582463;27;20051;-82
2021/11/22 02:44:05;;;;;;;2.88;1.73;;;;;;;1.74;100.00;102081.50;10589118;27;20799;-83
2021/11/22 02:49:06;;;;;;;10.45;2.67;;;;;;;1.74;100.00;102089.16;10584427;27;20055;-83
2021/11/22 02:54:08;;;;;;;4.88;1.88;;;;;;;1.66;100.00;102086.06;10590457;27;20071;-83
2021/11/22 02:59:09;;;;;;;4.78;2.88;;;;;;;1.55;100.00;102081.88;10600485;27;20051;-83
2021/11/22 03:04:11;;;;;;;4.30;2.00;;;;;;;1.54;100.00;102093.72;10582230;27;20054;-83
2021/11/22 03:09:12;;;;;;;6.15;2.20;;;;;;;1.31;100.00;102098.84;10579488;28;20044;-83
2021/11/22 03:14:14;;;;;;;4.05;1.83;;;;;;;1.44;100.00;102111.69;10580550;28;20048;-83
2021/11/22 03:19:16;;;;;;;4.40;2.28;;;;;;;1.49;100.00;102112.91;10590763;27;20536;-83
2021/11/22 03:24:18;;;;;;;4.70;2.20;;;;;;;1.39;100.00;102113.03;10591875;27;20043;-84
2021/11/22 03:29:20;;;;;;;6.30;2.00;;;;;;;1.42;100.00;102120.00;10580188;27;20048;-84
2021/11/22 03:34:22;;;;;;;4.93;1.67;;;;;;;1.35;100.00;102130.53;10582032;27;20051;-76
2021/11/22 03:39:25;;;;;;;5.20;1.60;;;;;;;1.37;100.00;102140.06;10603890;27;20349;-76
2021/11/22 03:44:27;;;;;;;3.97;1.60;;;;;;;1.29;100.00;102134.41;10577984;28;20044;-76
2021/11/22 03:49:29;;;;;;;8.25;1.70;;;;;;;1.30;100.00;102146.41;10577570;28;20054;-77
2021/11/22 03:54:31;;;;;;;3.90;1.92;;;;;;;1.18;100.00;102163.31;10569362;28;20059;-76
2021/11/22 03:59:34;;;;;;;6.25;1.77;;;;;;;1.17;100.00;102171.72;10535497;28;20491;-76
2021/11/22 04:04:36;;;;;;;3.97;2.03;;;;;;;1.23;100.00;102181.50;10538351;28;20050;-77
2021/11/22 04:09:37;;;;;;;4.78;1.70;;;;;;;1.13;100.00;102172.28;10564392;28;20079;-76
2021/11/22 04:14:39;;;;;;;5.70;1.92;;;;;;;0.94;100.00;102182.75;10550136;28;20052;-76
2021/11/22 04:19:41;;;;;;;3.42;1.58;;;;;;;0.81;100.00;102184.28;10551935;28;20060;-76
2021/11/22 04:24:42;;;;;;;2.33;1.40;;;;;;;0.75;100.00;102200.88;10574781;28;20512;-76
2021/11/22 04:29:46;;;;;;;2.75;1.50;;;;;;;0.62;100.00;102210.88;10551015;28;20047;-76
2021/11/22 04:34:47;;;;;;;5.53;1.45;;;;;;;0.64;100.00;102214.44;10542894;28;20044;-76
2021/11/22 04:39:49;;;;;;;3.63;1.42;;;;;;;0.58;100.00;102224.16;10562378;28;20054;-75
2021/11/22 04:44:50;;;;;;;4.38;2.22;;;;;;;0.63;100.00;102230.50;10535509;28;20118;-76
2021/11/22 04:49:53;;;;;;;4.95;1.90;;;;;;;0.50;100.00;102241.38;10559250;28;20060;-76
2021/11/22 04:54:58;;;;;;;5.07;1.75;;;;;;;0.61;100.00;102246.41;10576542;28;20134;-77
2021/11/22 05:00:00;;;;;;;4.68;1.50;;;;;;;0.58;100.00;102257.25;10568507;28;20062;-77
2021/11/22 05:05:01;;;;;;;2.53;1.40;;;;;;;0.48;100.00;102262.38;10545153;28;20044;-76
2021/11/22 05:10:04;;;;;;;3.47;2.10;;;;;;;0.28;100.00;102267.56;10544844;28;20058;-76
2021/11/22 05:15:07;;;;;;;9.60;1.80;;;;;;;0.40;100.00;102277.06;10571246;28;20075;-76
2021/11/22 05:20:09;;;;;;;2.42;1.33;;;;;;;0.22;100.00;102280.69;10585053;28;20529;-76
2021/11/22 05:25:10;;;;;;;3.13;1.48;;;;;;;0.07;100.00;102290.53;10554200;28;20040;-75
2021/11/22 05:30:13;;;;;;;3.90;1.50;;;;;;;-0.06;100.00;102296.31;10558668;28;20047;-76
2021/11/22 05:35:14;;;;;;;5.70;1.45;;;;;;;0.03;100.00;102311.41;10560236;28;20044;-76
2021/11/22 05:40:16;;;;;;;1.77;1.30;;;;;;;0.05;100.00;102314.94;10566475;28;20048;-76
2021/11/22 05:45:19;;;;;;;3.80;2.20;;;;;;;0.19;100.00;102321.16;10570366;28;20050;-75
2021/11/22 05:50:22;;;;;;;5.25;1.52;;;;;;;0.01;100.00;102323.13;10568995;28;20047;-75
2021/11/22 05:55:32;;;;;;;4.85;1.77;;;;;;;-0.06;100.00;102334.44;10540039;28;20137;-75
2021/11/22 06:00:35;;;;;;;1.90;1.40;;;;;;;0.04;100.00;102340.28;10541522;28;20063;-75
2021/11/22 06:05:36;;;;;;;4.10;1.80;;;;;;;-0.04;100.00;102342.19;10542407;28;20048;-76
2021/11/22 06:10:38;;;;;;;2.65;1.70;;;;;;;-0.03;100.00;102349.06;10538960;28;20056;-75
2021/11/22 06:15:40;;;;;;;4.72;2.40;;;;;;;-0.18;100.00;102352.88;10549538;28;20047;-76
2021/11/22 06:20:42;;;;;;;4.90;2.22;;;;;;;-0.14;100.00;102354.91;10581342;28;20044;-76
2021/11/22 06:25:44;;;;;;;2.90;1.70;;;;;;;-0.21;100.00;102358.63;10567224;28;20044;-75
2021/11/22 06:30:46;;;;;;;4.45;1.70;;;;;;;-0.28;100.00;102367.41;10553991;28;20057;-75
2021/11/22 06:35:48;;;;;;;4.60;1.63;;;;;;;-0.23;100.00;102364.31;10541308;28;20047;-75
2021/11/22 06:40:50;;;;;;;4.65;2.10;;;;;;;-0.31;100.00;102379.84;10564328;28;20067;-76
2021/11/22 06:45:51;;;;;;;2.67;1.85;;;;;;;-0.53;100.00;102388.97;10539470;28;20044;-75
2021/11/22 06:50:53;;;;;;;2.95;1.70;;;;;;;-0.48;100.00;102405.50;10552321;28;20044;-76
2021/11/22 06:55:54;;;;;;;5.75;2.00;;;;;;;-0.44;100.00;102410.09;10574578;28;20051;-75
2021/11/22 07:00:56;;;;;;;4.68;1.83;;;;;;;-0.39;100.00;102420.66;10577107;28;20044;-83
2021/11/22 07:05:59;;;;;;;4.38;2.17;;;;;;;-0.61;100.00;102434.06;10577741;28;20498;-83
2021/11/22 07:11:01;;;;;;;5.05;1.90;;;;;;;-0.33;100.00;102447.47;10580050;28;20407;-82
2021/11/22 07:16:03;;;;;;;4.53;1.92;;;;;;;-0.36;100.00;102459.03;10577104;28;20043;-83
2021/11/22 07:21:05;;;;;;;4.93;2.00;;;;;;;-0.45;100.00;102476.94;10574539;28;20058;-81
2021/11/22 07:26:06;;;;;;;4.63;1.95;;;;;;;-0.37;100.00;102481.00;10574990;28;20128;-80
2021/11/22 07:31:08;;;;;;;2.50;1.88;;;;;;;-0.47;100.00;102478.44;10578059;28;20051;-74
2021/11/22 07:36:10;;;;;;;4.45;2.22;;;;;;;-0.49;100.00;102486.72;10578428;28;20465;-74
2021/11/22 07:41:12;;;;;;;4.05;1.67;;;;;;;-0.61;100.00;102497.59;10578175;28;20517;-74
2021/11/22 07:46:14;;;;;;;3.30;2.15;;;;;;;-0.51;100.00;102514.53;10578772;28;20455;-74
2021/11/22 07:51:15;;;;;;;3.33;2.10;;;;;;;-0.68;100.00;102527.41;10577848;28;20120;-74
2021/11/22 07:56:17;;;;;;;2.20;1.98;;;;;;;-0.60;100.00;102519.72;10553452;28;20412;-74
2021/11/22 08:01:19;;;;;;;3.55;1.75;;;;;;;-0.38;100.00;102534.28;10545667;28;20120;-74
2021/11/22 08:06:23;;;;;;;4.28;2.15;;;;;;;-0.37;100.00;102533.50;10552892;28;20407;-74
2021/11/22 08:16:27;;;;;;;4.10;2.30;;;;;;;-0.20;100.00;102550.22;10535171;28;20391;-75
2021/11/22 08:21:28;;;;;;;7.35;2.15;;;;;;;-0.17;100.00;102543.75;10538690;28;20501;-74
2021/11/22 08:26:30;;;;;;;5.85;2.45;;;;;;;-0.12;100.00;102552.63;10565213;28;20055;-74
2021/11/22 08:31:31;;;;;;;4.35;2.00;;;;;;;0.12;100.00;102563.13;10568855;28;20052;-74
2021/11/22 08:36:33;;;;;;;3.00;2.55;;;;;;;0.01;100.00;102567.31;10543165;28;20044;-74
2021/11/22 08:41:35;;;;;;;5.57;3.53;;;;;;;0.40;100.00;102568.88;10542218;28;20059;-74
2021/11/22 08:46:38;;;;;;;5.30;2.83;;;;;;;0.24;100.00;102570.13;10555520;28;20059;-74
2021/11/22 08:51:41;;;;;;;3.50;2.90;;;;;;;0.41;100.00;102578.31;10546835;28;20047;-74
2021/11/22 08:56:43;;;;;;;4.05;2.65;;;;;;;0.62;100.00;102590.25;10583443;28;20517;-76
2021/11/22 09:01:45;;;;;;;4.18;2.72;;;;;;;1.09;100.00;102594.94;10583291;28;20062;-75
2021/11/22 09:06:47;;;;;;;14.70;3.60;;;;;;;1.33;100.00;102600.34;10583479;28;20335;-74
2021/11/22 09:11:49;;;;;;;8.73;4.03;;;;;;;1.53;100.00;102607.06;10584289;28;20047;-74
2021/11/22 09:16:50;;;;;;;7.57;3.20;;;;;;;1.67;100.00;102608.13;10588221;27;20066;-75
2021/11/22 09:21:52;;;;;;;7.80;3.83;;;;;;;1.74;100.00;102622.25;10596446;27;20522;-75
2021/11/22 09:26:53;;;;;;;11.27;4.95;;;;;;;1.69;100.00;102623.56;10582402;28;20055;-75
2021/11/22 09:31:55;;;;;;;13.70;5.70;;;;;;;1.92;100.00;102633.91;10595832;27;20144;-74
2021/11/22 09:36:57;;;;;;;10.77;4.30;;;;;;;2.12;100.00;102638.03;10582099;28;20052;-75
2021/11/22 09:41:58;;;;;;;5.95;3.65;;;;;;;2.31;100.00;102635.22;10582138;28;20056;-75
2021/11/22 09:47:00;;;;;;;7.78;4.72;;;;;;;2.54;100.00;102655.75;10581484;28;20052;-75
2021/11/22 09:52:03;;;;;;;7.15;4.30;;;;;;;2.72;100.00;102645.16;10582777;28;20055;-75
2021/11/22 09:57:05;;;;;;;9.27;3.90;;;;;;;2.80;100.00;102641.53;10598434;27;20134;-75
2021/11/22 10:02:08;;;;;;;9.95;4.55;;;;;;;2.83;100.00;102655.41;10602141;27;20052;-76
2021/11/22 10:07:10;;;;;;;7.82;4.28;;;;;;;3.07;100.00;102651.25;10581093;28;20105;-75
2021/11/22 10:12:23;;;;;;;9.80;4.47;;;;;;;3.27;100.00;102655.28;10589234;27;20075;-75
2021/11/22 10:17:33;;;;;;;6.75;3.75;;;;;;;3.53;100.00;102659.75;10599629;27;20039;-75
2021/11/22 10:23:03;;;;;;;13.60;3.33;;;;;;;3.70;100.00;102650.72;10590055;27;20051;-76
2021/11/22 10:28:16;;;;;;;7.63;3.60;;;;;;;3.80;100.00;102655.72;10577236;27;20055;-75
2021/11/22 10:33:25;;;;;;;17.95;4.22;;;;;;;3.83;100.00;102655.03;10583752;27;20043;-84
2021/11/22 10:38:31;;;;;;;6.90;3.58;;;;;;;3.83;100.00;102655.03;10580282;28;20138;-83
2021/11/22 10:44:04;;;;;;;11.77;4.95;;;;;;;3.88;100.00;102666.50;10579575;28;20048;-84
2021/11/22 10:49:15;;;;;;;16.08;3.53;;;;;;;4.48;100.00;102658.75;10549046;28;20047;-83
2021/11/22 10:54:19;;;;;;;6.75;2.30;;;;;;;5.67;100.00;102643.59;10579057;28;20058;-84
2021/11/22 10:59:23;;;;;;;5.35;2.22;;;;;;;7.38;89.13;102632.53;10579516;28;20051;-83
2021/11/22 11:04:26;;;;;;;5.32;2.30;;;;;;;7.64;86.06;102626.25;10580011;27;20127;-84
2021/11/22 11:09:32;;;;;;;6.72;1.95;;;;;;;8.17;79.36;102626.59;10578419;28;20058;-84
2021/11/22 11:14:37;;;;;;;9.40;2.50;;;;;;;8.00;80.65;102627.38;10607352;27;20056;-84
2021/11/22 11:19:40;;;;;;;1.10;0.88;;;;;;;8.43;76.75;102634.84;10604105;27;20067;-83
2021/11/22 11:24:41;;;;;;;2.47;1.42;;;;;;;8.22;76.90;102630.31;10593301;27;20135;-78
2021/11/22 11:30:03;;;;;;;2.10;1.90;;;;;;;8.97;74.47;102633.34;10586793;27;20055;-83
2021/11/22 11:35:14;;;;;;;3.13;0.90;;;;;;;8.67;76.50;102637.81;10585425;27;20051;-84
2021/11/22 11:40:34;;;;;;;4.03;1.33;;;;;;;8.36;71.93;102648.22;10577754;28;20052;-84
2021/11/22 11:45:43;;;;;;;2.80;1.30;;;;;;;9.11;72.67;102645.22;10576913;27;20079;-84
2021/11/22 11:50:45;;;;;;;2.65;1.38;;;;;;;8.81;73.12;102642.00;10591635;27;20056;-85
2021/11/22 11:56:13;;;;;;;3.30;1.33;;;;;;;8.39;75.85;102646.69;10596376;27;20059;-84
2021/11/22 12:01:17;;;;;;;3.05;0.80;;;;;;;8.76;72.60;102648.63;10576815;28;20051;-84
2021/11/22 12:06:45;;;;;;;3.83;1.13;;;;;;;8.64;71.85;102650.56;10602329;27;20420;-83
2021/11/22 12:11:49;;;;;;;3.28;0.85;;;;;;;7.74;73.92;102650.84;10576957;28;20051;-78
2021/11/22 12:16:54;;;;;;;2.03;0.65;;;;;;;8.16;68.81;102648.00;10589842;27;20051;-77
2021/11/22 12:22:14;;;;;;;1.15;0.88;;;;;;;7.54;69.66;102647.13;10591386;27;20066;-77
2021/11/22 12:27:28;;;;;;;2.25;0.70;;;;;;;7.56;69.98;102651.59;10593293;27;20499;-77
2021/11/22 12:32:36;;;;;;;2.05;0.98;;;;;;;7.72;73.21;102662.75;10602736;28;20059;-77
2021/11/22 12:37:49;;;;;;;1.50;0.77;;;;;;;7.54;71.98;102655.75;10577630;28;20055;-77
2021/11/22 12:42:56;;;;;;;4.75;1.30;;;;;;;7.25;72.46;102659.22;10595656;28;20043;-78
2021/11/22 12:47:58;;;;;;;2.15;0.80;;;;;;;7.15;71.22;102657.84;10598946;28;20047;-77
2021/11/22 12:53:13;;;;;;;1.63;0.70;;;;;;;6.96;68.41;102654.97;10591534;27;20110;-77
2021/11/22 12:58:22;;;;;;;1.45;0.40;;;;;;;6.91;70.14;102662.41;10601505;28;20427;-77
2021/11/22 13:03:25;;;;;;;1.38;0.50;;;;;;;7.00;67.64;102659.50;10619571;28;20039;-77
2021/11/22 13:08:41;;;;;;;2.45;1.42;;;;;;;6.95;69.24;102660.03;10590326;28;20051;-77
2021/11/22 13:13:48;;;;;;;1.48;0.82;;;;;;;6.91;66.72;102646.09;10596762;28;20043;-77
2021/11/22 13:18:50;;;;;;;;;;;;;;;6.79;71.41;102659.13;10586661;27;20059;-78
2021/11/22 13:23:55;;;;;;;1.90;0.82;;;;;;;6.69;72.58;102654.22;10598473;27;19926;-77
2021/11/22 13:29:02;;;;;;;3.45;0.80;;;;;;;6.66;75.89;102663.44;10582868;28;20058;-77
2021/11/22 13:34:06;;;;;;;2.38;0.57;;;;;;;6.60;76.05;102672.56;10598572;27;20054;-77
2021/11/22 13:39:28;;;;;;;2.67;1.65;;;;;;;6.54;73.86;102671.31;10602332;27;20486;-77
2021/11/22 13:44:33;;;;;;;0.63;0.47;;;;;;;6.41;74.11;102672.25;10601439;27;20047;-77
2021/11/22 13:49:35;;;;;;;0.63;0.57;;;;;;;6.56;72.76;102688.59;10584150;28;20051;-77
2021/11/22 13:54:58;;;;;;;0.73;0.50;;;;;;;6.24;75.45;102696.00;10583505;28;20083;-77
2021/11/22 13:59:59;;;;;;;5.83;0.73;;;;;;;6.45;70.63;102689.63;10596333;27;20052;-78
2021/11/22 14:05:02;;;;;;;1.33;0.60;;;;;;;6.23;71.60;102689.97;10585533;27;20053;-77
2021/11/22 14:10:05;;;;;;;1.48;0.50;;;;;;;6.05;73.85;102701.69;10585175;27;20058;-77
2021/11/22 14:15:21;;;;;;;2.38;0.60;;;;;;;6.16;73.88;102703.25;10581633;28;20415;-77
2021/11/22 14:20:23;;;;;;;2.13;0.60;;;;;;;6.24;70.86;102711.41;10602166;27;20051;-77
2021/11/22 14:25:30;;;;;;;1.75;0.38;;;;;;;5.90;75.42;102718.63;10603306;27;20047;-77
2021/11/22 14:30:35;;;;;;;1.15;0.50;;;;;;;6.07;70.44;102710.38;10610852;27;20410;-77
2021/11/22 14:35:44;;;;;;;2.38;0.68;;;;;;;6.01;71.69;102720.25;10605971;27;20047;-78
2021/11/22 14:40:50;;;;;;;2.80;0.80;;;;;;;6.00;70.89;102732.19;10593004;27;20533;-77
2021/11/22 14:45:54;;;;;;;3.80;1.08;;;;;;;5.50;81.61;102732.38;10606027;27;20402;-77
2021/11/22 14:51:04;;;;;;;0.40;0.40;;;;;;;5.14;82.58;102724.78;10590083;27;20468;-77
2021/11/22 14:56:27;;;;;;;1.58;0.63;;;;;;;4.84;86.73;102732.19;10497278;28;20110;-77
2021/11/22 15:01:40;;;;;;;0.50;0.50;;;;;;;4.59;89.76;102728.69;10509475;28;20135;-77
2021/11/22 15:06:45;;;;;;;3.85;0.70;;;;;;;4.23;93.66;102723.66;10494891;28;20052;-77
2021/11/22 15:11:51;;;;;;;1.00;0.50;;;;;;;4.06;96.83;102738.63;10508319;28;20492;-77
2021/11/22 15:16:58;;;;;;;1.25;0.40;;;;;;;3.97;94.88;102743.94;10528174;28;20048;-77
2021/11/22 15:22:01;;;;;;;1.77;0.70;;;;;;;3.81;100.00;102741.97;10504115;28;20078;-77
2021/11/22 15:27:05;;;;;;;0.52;0.50;;;;;;;3.67;100.00;102735.84;10509413;28;20052;-85
2021/11/22 15:32:11;;;;;;;0.90;0.60;;;;;;;3.56;100.00;102738.38;10519670;28;20052;-77
2021/11/22 15:37:12;;;;;;;1.13;0.45;;;;;;;3.41;100.00;102744.16;10522389;28;20488;-77
2021/11/22 15:42:16;;;;;;;0.80;0.40;;;;;;;3.26;100.00;102766.03;10524573;28;20048;-77
2021/11/22 15:47:18;;;;;;;0.60;0.40;;;;;;;3.13;100.00;102769.31;10508825;28;20083;-77
2021/11/22 15:52:20;;;;;;;1.10;0.40;;;;;;;2.95;100.00;102773.03;10555839;27;20054;-77
2021/11/22 15:57:21;;;;;;;2.65;0.60;;;;;;;2.80;100.00;102787.19;10598123;27;20052;-77
2021/11/22 16:02:23;;;;;;;3.00;0.60;;;;;;;2.57;100.00;102786.28;10591847;27;20083;-77
2021/11/22 16:07:26;;;;;;;3.03;0.47;;;;;;;2.57;100.00;102790.50;10596428;27;20039;-77
2021/11/22 16:12:28;;;;;;;1.70;0.40;;;;;;;2.45;100.00;102795.53;10599634;27;20047;-77
2021/11/22 16:17:30;;;;;;;0.80;0.68;;;;;;;2.18;100.00;102789.13;10618739;27;20043;-78
2021/11/22 16:22:31;;;;;;;0.90;0.52;;;;;;;2.07;100.00;102802.69;10603054;27;20081;-77
2021/11/22 16:27:33;;;;;;;0.50;0.50;;;;;;;1.98;100.00;102799.38;10579040;28;20046;-77
2021/11/22 16:32:36;;;;;;;1.77;0.77;;;;;;;1.83;100.00;102801.59;10602561;28;20043;-77
2021/11/22 16:37:37;;;;;;;0.82;0.82;;;;;;;1.80;100.00;102801.31;10575759;28;20521;-77
2021/11/22 16:42:39;;;;;;;1.85;0.77;;;;;;;1.80;100.00;102812.41;10587731;28;20073;-77
2021/11/22 16:47:41;;;;;;;1.27;0.80;;;;;;;1.63;100.00;102817.78;10582096;28;20048;-77
2021/11/22 16:52:44;;;;;;;1.98;0.65;;;;;;;1.63;100.00;102816.91;10590043;28;20056;-77
2021/11/22 16:57:46;;;;;;;1.38;0.80;;;;;;;1.46;100.00;102818.94;10624843;27;20050;-77
2021/11/22 17:02:47;;;;;;;3.70;0.93;;;;;;;1.36;100.00;102813.84;10615275;27;20051;-77
2021/11/22 17:07:49;;;;;;;1.23;0.65;;;;;;;1.31;100.00;102821.13;10602953;27;20402;-77
2021/11/22 17:12:53;;;;;;;6.03;1.00;;;;;;;1.23;100.00;102811.03;10610685;27;20058;-77
2021/11/22 17:17:55;;;;;;;1.85;0.70;;;;;;;1.20;100.00;102828.63;10583122;28;20043;-77
2021/11/22 17:22:59;;;;;;;2.63;1.02;;;;;;;1.17;100.00;102821.59;10600829;27;20050;-77
2021/11/22 17:28:01;;;;;;;1.52;0.80;;;;;;;1.11;100.00;102825.28;10592207;27;20051;-77
2021/11/22 17:33:03;;;;;;;1.50;0.60;;;;;;;0.99;100.00;102825.16;10590148;27;20096;-78
2021/11/22 17:38:04;;;;;;;5.18;1.13;;;;;;;0.66;100.00;102843.50;10604365;27;20126;-79
2021/11/22 17:43:06;;;;;;;4.68;1.17;;;;;;;0.73;100.00;102844.16;10595824;27;20489;-78
2021/11/22 17:48:08;;;;;;;2.00;1.08;;;;;;;0.84;100.00;102850.19;10584608;27;20456;-79
2021/11/22 17:53:11;;;;;;;3.03;1.20;;;;;;;0.64;100.00;102856.13;10590649;27;20071;-78
2021/11/22 17:58:13;;;;;;;3.13;0.80;;;;;;;0.64;100.00;102857.78;10550611;28;20134;-79
2021/11/22 18:03:16;;;;;;;1.20;0.90;;;;;;;0.58;100.00;102852.13;10580908;28;20055;-79
2021/11/22 18:08:19;;;;;;;2.83;1.45;;;;;;;0.53;100.00;102857.72;10555053;28;20530;-79
2021/11/22 18:13:22;;;;;;;4.72;1.60;;;;;;;0.45;100.00;102870.50;10551259;28;20540;-79
2021/11/22 18:18:24;;;;;;;4.20;1.23;;;;;;;0.29;100.00;102873.38;10582032;28;20051;-79
2021/11/22 18:23:26;;;;;;;1.83;1.10;;;;;;;0.23;100.00;102870.28;10559110;28;20117;-79
2021/11/22 18:28:28;;;;;;;3.50;1.23;;;;;;;0.07;100.00;102878.19;10539368;28;20131;-79
2021/11/22 18:33:31;;;;;;;2.60;1.80;;;;;;;-0.02;100.00;102885.00;10575615;28;20126;-79
2021/11/22 18:38:36;;;;;;;5.15;1.38;;;;;;;-0.07;100.00;102897.28;10554648;28;20071;-79
2021/11/22 18:43:38;;;;;;;2.65;1.30;;;;;;;0.00;100.00;102908.94;10561300;28;20057;-78
2021/11/22 18:48:42;;;;;;;3.47;1.17;;;;;;;-0.15;100.00;102908.44;10582448;28;20062;-78
2021/11/22 18:53:44;;;;;;;3.38;1.60;;;;;;;-0.15;100.00;102899.91;10588085;27;20567;-79
2021/11/22 18:58:47;;;;;;;1.92;1.60;;;;;;;-0.15;100.00;102908.44;10586782;27;20051;-80
2021/11/22 19:03:48;;;;;;;2.17;1.90;;;;;;;-0.22;100.00;102903.53;10596094;27;20069;-79
2021/11/22 19:08:51;;;;;;;5.10;2.38;;;;;;;-0.23;100.00;102911.00;10614404;27;20043;-80
2021/11/22 19:13:53;;;;;;;4.10;2.30;;;;;;;-0.34;100.00;102908.41;10582660;27;20130;-79
2021/11/22 19:19:02;;;;;;;5.00;3.85;;;;;;;-0.39;100.00;102906.19;10595531;27;20059;-78
2021/11/22 19:24:09;;;;;;;3.17;1.75;;;;;;;-0.41;100.00;102903.47;10615154;27;20043;-78
2021/11/22 19:29:14;;;;;;;;;;;;;;;-0.48;100.00;102897.69;10593776;27;20054;-79
2021/11/22 19:34:16;;;;;;;5.32;2.17;;;;;;;-0.53;100.00;102909.97;10587102;27;19998;-80
2021/11/22 19:39:21;;;;;;;4.07;2.53;;;;;;;-0.60;100.00;102908.53;10601701;27;20055;-79
2021/11/22 19:44:22;;;;;;;5.57;2.90;;;;;;;-0.83;100.00;102911.44;10620882;27;20494;-79
2021/11/22 19:49:25;;;;;;;5.38;3.45;;;;;;;-0.74;100.00;102910.50;10587335;27;20100;-81
2021/11/22 19:54:26;;;;;;;5.82;3.45;;;;;;;-0.67;100.00;102912.91;10592323;27;20448;-80
2021/11/22 19:59:33;;;;;;;6.80;3.88;;;;;;;-0.72;100.00;102924.28;10616487;27;20406;-78
2021/11/22 20:04:53;;;;;;;5.63;3.38;;;;;;;-0.84;100.00;102930.00;10590758;27;20039;-80
2021/11/22 20:09:55;;;;;;;5.88;3.88;;;;;;;-0.86;100.00;102928.94;10600022;27;20050;-79
2021/11/22 20:15:05;;;;;;;7.30;4.03;;;;;;;-0.91;100.00;102920.00;10615425;27;20078;-79
2021/11/22 20:20:13;;;;;;;7.93;4.10;;;;;;;-0.85;100.00;102920.59;10596500;27;20517;-79
2021/11/22 20:25:22;;;;;;;6.20;3.90;;;;;;;-0.88;100.00;102920.28;10596436;27;20126;-78
2021/11/22 20:30:28;;;;;;;9.45;4.20;;;;;;;-0.98;100.00;102922.69;10600997;28;20047;-78
2021/11/22 20:35:32;;;;;;;5.00;3.35;;;;;;;-0.95;100.00;102925.53;10595624;28;20070;-78
2021/11/22 20:40:34;;;;;;;4.80;2.60;;;;;;;-1.03;100.00;102936.59;10594311;28;20130;-78
2021/11/22 20:45:35;;;;;;;4.32;2.30;;;;;;;-1.03;100.00;102935.72;10588790;28;20047;-78
2021/11/22 20:50:38;;;;;;;3.03;2.60;;;;;;;-1.02;100.00;102940.03;10605585;28;20134;-78
2021/11/22 20:55:41;;;;;;;4.25;3.22;;;;;;;-0.98;100.00;102927.78;10604746;28;20441;-78
2021/11/22 21:00:44;;;;;;;7.65;3.53;;;;;;;-1.10;100.00;102944.41;10623486;28;20067;-78
2021/11/22 21:05:47;;;;;;;6.20;4.60;;;;;;;-1.02;100.00;102940.03;10603828;28;20072;-78
2021/11/22 21:10:52;;;;;;;4.30;3.75;;;;;;;-1.23;100.00;102943.97;10600868;28;20055;-78
2021/11/22 21:15:54;;;;;;;7.00;2.97;;;;;;;-1.30;100.00;102947.56;10590780;28;20047;-78
2021/11/22 21:20:56;;;;;;;2.67;2.22;;;;;;;-1.27;100.00;102949.50;10621485;28;20147;-79
2021/11/22 21:25:59;;;;;;;4.22;2.70;;;;;;;-1.32;100.00;102943.97;10594545;28;20056;-78
2021/11/22 21:31:02;;;;;;;11.02;7.75;;;;;;;-1.30;100.00;102937.41;10622122;28;20047;-79
2021/11/22 21:36:04;;;;;;;5.70;4.40;;;;;;;-1.35;100.00;102934.44;10598435;28;20065;-79
2021/11/22 21:41:06;;;;;;;6.53;3.70;;;;;;;-1.36;100.00;102924.16;10595513;27;20130;-79
2021/11/22 21:46:09;;;;;;;10.13;5.38;;;;;;;-1.34;100.00;102936.22;10601276;27;20062;-80
2021/11/22 21:51:11;;;;;;;2.88;1.90;;;;;;;-1.50;100.00;102950.72;10610646;27;20570;-79
2021/11/22 21:56:13;;;;;;;3.88;2.22;;;;;;;-1.56;100.00;102947.56;10610643;27;20524;-79
2021/11/22 22:01:14;;;;;;;3.67;2.72;;;;;;;-1.42;100.00;102967.59;10601126;27;20165;-79
2021/11/22 22:06:17;;;;;;;7.85;3.40;;;;;;;-1.53;100.00;102967.25;10593582;27;20052;-79
2021/11/22 22:11:19;;;;;;;3.25;2.65;;;;;;;-1.49;100.00;102966.81;10596875;27;20061;-79
2021/11/22 22:16:20;;;;;;;3.92;2.95;;;;;;;-1.56;100.00;102967.88;10628814;27;20051;-79
2021/11/22 22:21:23;;;;;;;7.32;4.97;;;;;;;-1.63;100.00;102968.91;10595696;27;20520;-79
2021/11/22 22:26:25;;;;;;;4.50;3.33;;;;;;;-1.69;100.00;102977.56;10609167;27;20061;-79
2021/11/22 22:31:27;;;;;;;21.85;16.73;;;;;;;-1.63;100.00;102970.56;10601604;27;20059;-80
2021/11/22 22:36:29;;;;;;;5.18;4.68;;;;;;;-1.69;100.00;102978.47;10592619;27;20051;-79
2021/11/22 22:41:31;;;;;;;5.88;4.00;;;;;;;-1.68;100.00;102987.88;10609331;27;20135;-79
2021/11/22 22:46:32;;;;;;;7.00;4.28;;;;;;;-1.61;100.00;102974.13;10594799;27;20075;-79
2021/11/22 22:51:34;;;;;;;4.32;3.38;;;;;;;-1.69;100.00;102978.47;10594338;27;20109;-79
2021/11/22 22:56:37;;;;;;;4.28;3.50;;;;;;;-1.73;100.00;102976.38;10608585;27;20047;-80
2021/11/22 23:01:38;;;;;;;5.35;3.17;;;;;;;-1.69;100.00;102980.13;10627709;27;20047;-80
2021/11/22 23:06:40;;;;;;;4.65;3.65;;;;;;;-1.75;100.00;102985.47;10607721;27;20251;-79
2021/11/22 23:11:42;;;;;;;5.03;3.42;;;;;;;-1.74;100.00;102994.88;10607702;27;20078;-80
2021/11/22 23:16:44;;;;;;;6.35;4.07;;;;;;;-1.73;100.00;102980.53;10607452;27;20122;-80
2021/11/22 23:21:47;;;;;;;5.47;4.18;;;;;;;-1.70;100.00;102978.28;10607442;27;20053;-79